createdAt,value
2018-05-17T00:00:05.623Z,974.83
2018-05-17T00:01:05.359Z,974.77
2018-05-17T00:02:05.457Z,974.77
2018-05-17T00:03:05.685Z,974.83
2018-05-17T00:04:10.512Z,974.74
2018-05-17T00:05:05.319Z,974.77
2018-05-17T00:06:05.317Z,974.74
2018-05-17T00:07:05.156Z,974.77
2018-05-17T00:08:05.646Z,974.80
2018-05-17T00:09:06.284Z,974.77
2018-05-17T00:10:05.806Z,974.80
2018-05-17T00:11:05.615Z,974.77
2018-05-17T00:12:05.581Z,974.77
2018-05-17T00:13:05.606Z,974.68
2018-05-17T00:14:05.480Z,974.74
2018-05-17T00:15:05.431Z,974.62
2018-05-17T00:16:05.439Z,974.68
2018-05-17T00:17:05.268Z,974.65
2018-05-17T00:18:05.572Z,974.57
2018-05-17T00:19:05.618Z,974.65
2018-05-17T00:20:05.480Z,974.74
2018-05-17T00:21:05.036Z,974.62
2018-05-17T00:22:05.493Z,974.71
2018-05-17T00:23:05.138Z,974.60
2018-05-17T00:24:05.851Z,974.71
2018-05-17T00:25:05.671Z,974.57
2018-05-17T00:26:04.983Z,974.68
2018-05-17T00:27:05.059Z,974.68
2018-05-17T00:28:05.587Z,974.71
2018-05-17T00:29:05.591Z,974.54
2018-05-17T00:30:06.009Z,974.45
2018-05-17T00:31:06.137Z,974.54
2018-05-17T00:32:05.552Z,974.48
2018-05-17T00:33:05.300Z,974.40
2018-05-17T00:34:05.460Z,974.45
2018-05-17T00:35:05.451Z,974.51
2018-05-17T00:36:05.677Z,974.43
2018-05-17T00:37:05.520Z,974.43
2018-05-17T00:38:05.610Z,974.51
2018-05-17T00:39:05.009Z,974.43
2018-05-17T00:40:05.563Z,974.43
2018-05-17T00:41:05.752Z,974.43
2018-05-17T00:42:05.764Z,974.43
2018-05-17T00:43:10.657Z,974.40
2018-05-17T00:44:05.968Z,974.51
2018-05-17T00:45:05.672Z,974.40
2018-05-17T00:46:06.407Z,974.54
2018-05-17T00:47:05.806Z,974.46
2018-05-17T00:48:05.574Z,974.43
2018-05-17T00:49:05.779Z,974.43
2018-05-17T00:50:05.583Z,974.34
2018-05-17T00:51:10.629Z,974.43
2018-05-17T00:52:05.604Z,974.46
2018-05-17T00:53:05.974Z,974.43
2018-05-17T00:54:05.961Z,974.40
2018-05-17T00:55:05.672Z,974.49
2018-05-17T00:56:05.691Z,974.52
2018-05-17T00:57:05.282Z,974.55
2018-05-17T00:58:05.186Z,974.43
2018-05-17T00:59:05.506Z,974.35
2018-05-17T01:00:05.452Z,974.49
2018-05-17T01:01:05.397Z,974.37
2018-05-17T01:02:05.313Z,974.52
2018-05-17T01:03:05.411Z,974.40
2018-05-17T01:04:05.157Z,974.40
2018-05-17T01:05:05.201Z,974.40
2018-05-17T01:06:05.277Z,974.32
2018-05-17T01:07:05.591Z,974.35
2018-05-17T01:08:05.709Z,974.40
2018-05-17T01:09:05.792Z,974.49
2018-05-17T01:10:05.794Z,974.40
2018-05-17T01:11:05.253Z,974.43
2018-05-17T01:12:05.516Z,974.38
2018-05-17T01:13:04.987Z,974.29
2018-05-17T01:14:05.718Z,974.38
2018-05-17T01:15:05.891Z,974.43
2018-05-17T01:16:05.812Z,974.44
2018-05-17T01:17:05.865Z,974.46
2018-05-17T01:18:05.842Z,974.44
2018-05-17T01:19:05.559Z,974.49
2018-05-17T01:20:10.914Z,974.46
2018-05-17T01:21:05.864Z,974.52
2018-05-17T01:22:05.420Z,974.44
2018-05-17T01:23:05.599Z,974.41
2018-05-17T01:24:05.803Z,974.35
2018-05-17T01:25:05.698Z,974.47
2018-05-17T01:26:05.532Z,974.41
2018-05-17T01:27:05.578Z,974.38
2018-05-17T01:28:05.173Z,974.41
2018-05-17T01:29:05.593Z,974.47
2018-05-17T01:30:05.388Z,974.32
2018-05-17T01:31:05.624Z,974.35
2018-05-17T01:32:05.747Z,974.35
2018-05-17T01:33:05.982Z,974.41
2018-05-17T01:34:06.979Z,974.47
2018-05-17T01:35:05.142Z,974.44
2018-05-17T01:36:05.586Z,974.41
2018-05-17T01:37:05.465Z,974.26
2018-05-17T01:38:05.774Z,974.47
2018-05-17T01:39:05.964Z,974.47
2018-05-17T01:40:05.145Z,974.32
2018-05-17T01:41:06.155Z,974.47
2018-05-17T01:42:05.533Z,974.41
2018-05-17T01:43:05.932Z,974.41
2018-05-17T01:44:06.171Z,974.46
2018-05-17T01:45:05.578Z,974.35
2018-05-17T01:46:05.559Z,974.38
2018-05-17T01:47:05.667Z,974.40
2018-05-17T01:48:05.352Z,974.43
2018-05-17T01:49:05.153Z,974.35
2018-05-17T01:50:05.997Z,974.40
2018-05-17T01:51:07.674Z,974.37
2018-05-17T01:52:05.879Z,974.29
2018-05-17T01:53:05.139Z,974.37
2018-05-17T01:54:05.580Z,974.37
2018-05-17T01:55:10.885Z,974.43
2018-05-17T01:56:05.756Z,974.34
2018-05-17T01:57:05.864Z,974.40
2018-05-17T01:58:06.277Z,974.26
2018-05-17T01:59:05.172Z,974.43
2018-05-17T02:00:10.121Z,974.37
2018-05-17T02:01:05.599Z,974.34
2018-05-17T02:02:05.558Z,974.43
2018-05-17T02:03:05.587Z,974.46
2018-05-17T02:04:10.537Z,974.37
2018-05-17T02:05:05.838Z,974.25
2018-05-17T02:06:05.046Z,974.31
2018-05-17T02:07:05.247Z,974.34
2018-05-17T02:08:05.084Z,974.40
2018-05-17T02:09:05.168Z,974.25
2018-05-17T02:10:10.190Z,974.40
2018-05-17T02:11:05.937Z,974.48
2018-05-17T02:12:05.635Z,974.31
2018-05-17T02:13:05.635Z,974.34
2018-05-17T02:14:06.001Z,974.42
2018-05-17T02:15:05.825Z,974.48
2018-05-17T02:16:05.202Z,974.28
2018-05-17T02:17:05.015Z,974.36
2018-05-17T02:18:06.057Z,974.39
2018-05-17T02:19:05.486Z,974.42
2018-05-17T02:20:05.713Z,974.39
2018-05-17T02:21:05.173Z,974.31
2018-05-17T02:22:05.283Z,974.31
2018-05-17T02:23:05.796Z,974.39
2018-05-17T02:24:05.049Z,974.48
2018-05-17T02:25:05.422Z,974.36
2018-05-17T02:26:10.122Z,974.42
2018-05-17T02:27:06.106Z,974.39
2018-05-17T02:28:05.098Z,974.25
2018-05-17T02:29:05.261Z,974.59
2018-05-17T02:30:05.554Z,974.45
2018-05-17T02:31:05.023Z,974.42
2018-05-17T02:32:05.582Z,974.39
2018-05-17T02:33:05.742Z,974.45
2018-05-17T02:34:05.103Z,974.48
2018-05-17T02:35:05.013Z,974.53
2018-05-17T02:36:05.057Z,974.62
2018-05-17T02:37:05.668Z,974.48
2018-05-17T02:38:05.880Z,974.59
2018-05-17T02:39:05.348Z,974.42
2018-05-17T02:40:05.811Z,974.36
2018-05-17T02:41:05.766Z,974.45
2018-05-17T02:42:05.762Z,974.48
2018-05-17T02:43:05.111Z,974.42
2018-05-17T02:44:06.288Z,974.44
2018-05-17T02:45:05.153Z,974.36
2018-05-17T02:46:05.195Z,974.36
2018-05-17T02:47:05.046Z,974.39
2018-05-17T02:48:05.524Z,974.45
2018-05-17T02:49:05.946Z,974.16
2018-05-17T02:50:05.493Z,974.39
2018-05-17T02:51:05.282Z,974.39
2018-05-17T02:52:05.336Z,974.24
2018-05-17T02:53:10.378Z,974.50
2018-05-17T02:54:05.612Z,974.41
2018-05-17T02:55:05.190Z,974.53
2018-05-17T02:56:06.471Z,974.36
2018-05-17T02:57:05.243Z,974.39
2018-05-17T02:58:05.399Z,974.47
2018-05-17T02:59:05.468Z,974.39
2018-05-17T03:00:05.731Z,974.44
2018-05-17T03:01:05.680Z,974.39
2018-05-17T03:02:05.048Z,974.50
2018-05-17T03:03:05.724Z,974.44
2018-05-17T03:04:05.558Z,974.39
2018-05-17T03:05:06.502Z,974.41
2018-05-17T03:06:06.358Z,974.50
2018-05-17T03:07:05.529Z,974.56
2018-05-17T03:08:05.032Z,974.50
2018-05-17T03:09:05.207Z,974.50
2018-05-17T03:10:05.680Z,974.50
2018-05-17T03:11:05.430Z,974.47
2018-05-17T03:12:05.874Z,974.59
2018-05-17T03:13:05.261Z,974.64
2018-05-17T03:14:05.920Z,974.61
2018-05-17T03:15:06.374Z,974.56
2018-05-17T03:16:05.582Z,974.47
2018-05-17T03:17:05.411Z,974.56
2018-05-17T03:18:05.506Z,974.61
2018-05-17T03:19:05.513Z,974.61
2018-05-17T03:20:05.431Z,974.64
2018-05-17T03:21:05.488Z,974.47
2018-05-17T03:22:05.389Z,974.55
2018-05-17T03:23:05.646Z,974.61
2018-05-17T03:24:05.801Z,974.52
2018-05-17T03:25:05.365Z,974.61
2018-05-17T03:26:05.385Z,974.67
2018-05-17T03:27:05.655Z,974.64
2018-05-17T03:28:06.036Z,974.61
2018-05-17T03:29:05.155Z,974.61
2018-05-17T03:30:05.400Z,974.52
2018-05-17T03:31:06.038Z,974.55
2018-05-17T03:32:05.117Z,974.55
2018-05-17T03:33:06.301Z,974.64
2018-05-17T03:34:05.400Z,974.64
2018-05-17T03:35:05.638Z,974.61
2018-05-17T03:36:05.873Z,974.58
2018-05-17T03:37:05.662Z,974.66
2018-05-17T03:38:05.818Z,974.58
2018-05-17T03:39:06.224Z,974.67
2018-05-17T03:40:06.207Z,974.72
2018-05-17T03:41:05.888Z,974.66
2018-05-17T03:42:06.276Z,974.75
2018-05-17T03:43:05.742Z,974.78
2018-05-17T03:44:05.032Z,974.69
2018-05-17T03:45:05.436Z,974.69
2018-05-17T03:46:05.136Z,974.69
2018-05-17T03:47:05.849Z,974.78
2018-05-17T03:48:05.888Z,974.61
2018-05-17T03:49:05.074Z,974.78
2018-05-17T03:50:05.976Z,974.72
2018-05-17T03:51:05.916Z,974.86
2018-05-17T03:52:05.246Z,974.66
2018-05-17T03:53:05.339Z,974.78
2018-05-17T03:54:05.633Z,974.69
2018-05-17T03:55:05.661Z,974.72
2018-05-17T03:56:05.637Z,974.81
2018-05-17T03:57:05.874Z,974.78
2018-05-17T03:58:05.154Z,974.97
2018-05-17T03:59:05.169Z,974.97
2018-05-17T04:00:05.448Z,974.78
2018-05-17T04:01:07.017Z,974.89
2018-05-17T04:02:10.261Z,974.81
2018-05-17T04:03:05.072Z,974.84
2018-05-17T04:04:05.647Z,974.89
2018-05-17T04:05:10.893Z,974.92
2018-05-17T04:06:05.966Z,974.84
2018-05-17T04:07:05.702Z,974.84
2018-05-17T04:08:05.229Z,974.95
2018-05-17T04:09:13.239Z,974.87
2018-05-17T04:10:05.295Z,974.87
2018-05-17T04:11:10.236Z,974.84
2018-05-17T04:12:05.367Z,974.81
2018-05-17T04:13:05.166Z,975.00
2018-05-17T04:14:05.175Z,974.97
2018-05-17T04:15:05.769Z,974.89
2018-05-17T04:16:10.972Z,974.92
2018-05-17T04:17:05.970Z,974.92
2018-05-17T04:18:05.289Z,975.00
2018-05-17T04:19:05.472Z,974.87
2018-05-17T04:20:06.108Z,975.03
2018-05-17T04:21:05.458Z,975.12
2018-05-17T04:22:05.603Z,975.09
2018-05-17T04:23:05.640Z,975.17
2018-05-17T04:24:06.767Z,975.00
2018-05-17T04:25:06.160Z,974.97
2018-05-17T04:26:05.158Z,975.03
2018-05-17T04:27:06.032Z,975.09
2018-05-17T04:28:05.640Z,975.20
2018-05-17T04:29:05.666Z,975.03
2018-05-17T04:30:05.918Z,974.97
2018-05-17T04:31:05.712Z,975.12
2018-05-17T04:32:05.239Z,975.00
2018-05-17T04:33:05.352Z,975.00
2018-05-17T04:34:04.947Z,975.09
2018-05-17T04:35:05.869Z,975.03
2018-05-17T04:36:05.361Z,975.12
2018-05-17T04:37:05.280Z,975.15
2018-05-17T04:38:05.458Z,975.17
2018-05-17T04:39:05.341Z,975.20
2018-05-17T04:40:10.421Z,975.17
2018-05-17T04:41:05.813Z,975.09
2018-05-17T04:42:05.970Z,975.18
2018-05-17T04:43:05.247Z,975.23
2018-05-17T04:44:05.503Z,975.18
2018-05-17T04:45:05.938Z,975.23
2018-05-17T04:46:05.306Z,975.24
2018-05-17T04:47:05.311Z,975.34
2018-05-17T04:48:05.463Z,975.24
2018-05-17T04:49:05.808Z,975.01
2018-05-17T04:50:05.738Z,975.24
2018-05-17T04:51:05.820Z,975.32
2018-05-17T04:52:05.873Z,975.32
2018-05-17T04:53:05.831Z,975.21
2018-05-17T04:54:06.927Z,975.32
2018-05-17T04:55:05.910Z,975.37
2018-05-17T04:56:05.802Z,975.21
2018-05-17T04:57:05.270Z,975.24
2018-05-17T04:58:05.768Z,975.15
2018-05-17T04:59:05.508Z,975.15
2018-05-17T05:00:06.114Z,975.24
2018-05-17T05:01:06.074Z,975.18
2018-05-17T05:02:05.238Z,975.04
2018-05-17T05:03:06.006Z,975.18
2018-05-17T05:04:05.298Z,975.18
2018-05-17T05:05:05.231Z,975.21
2018-05-17T05:06:05.336Z,975.21
2018-05-17T05:07:10.309Z,975.16
2018-05-17T05:08:05.482Z,975.21
2018-05-17T05:09:05.534Z,975.13
2018-05-17T05:10:05.195Z,975.15
2018-05-17T05:11:05.631Z,975.18
2018-05-17T05:12:06.260Z,975.27
2018-05-17T05:13:05.556Z,975.16
2018-05-17T05:14:05.276Z,975.18
2018-05-17T05:15:05.257Z,975.24
2018-05-17T05:16:05.805Z,975.27
2018-05-17T05:17:05.274Z,975.33
2018-05-17T05:18:05.597Z,975.24
2018-05-17T05:19:06.194Z,975.24
2018-05-17T05:20:05.787Z,975.27
2018-05-17T05:21:06.233Z,975.40
2018-05-17T05:22:05.581Z,975.33
2018-05-17T05:23:05.292Z,975.24
2018-05-17T05:24:06.396Z,975.27
2018-05-17T05:25:05.588Z,975.33
2018-05-17T05:26:05.362Z,975.38
2018-05-17T05:27:05.950Z,975.44
2018-05-17T05:28:05.783Z,975.44
2018-05-17T05:29:06.045Z,975.41
2018-05-17T05:30:06.005Z,975.52
2018-05-17T05:31:06.145Z,975.55
2018-05-17T05:32:05.630Z,975.52
2018-05-17T05:33:05.128Z,975.44
2018-05-17T05:34:05.367Z,975.44
2018-05-17T05:35:05.633Z,975.47
2018-05-17T05:36:05.461Z,975.58
2018-05-17T05:37:10.890Z,975.55
2018-05-17T05:38:05.986Z,975.55
2018-05-17T05:39:07.155Z,975.50
2018-05-17T05:40:05.164Z,975.52
2018-05-17T05:41:05.118Z,975.52
2018-05-17T05:42:05.176Z,975.49
2018-05-17T05:43:05.686Z,975.38
2018-05-17T05:44:05.469Z,975.55
2018-05-17T05:45:05.710Z,975.47
2018-05-17T05:46:05.592Z,975.52
2018-05-17T05:47:06.093Z,975.55
2018-05-17T05:48:05.287Z,975.52
2018-05-17T05:49:04.946Z,975.61
2018-05-17T05:50:06.060Z,975.64
2018-05-17T05:51:06.241Z,975.58
2018-05-17T05:52:05.232Z,975.58
2018-05-17T05:53:10.329Z,975.58
2018-05-17T05:54:05.324Z,975.58
2018-05-17T05:55:05.651Z,975.61
2018-05-17T05:56:06.018Z,975.55
2018-05-17T05:57:05.230Z,975.75
2018-05-17T05:58:05.253Z,975.67
2018-05-17T05:59:05.250Z,975.87
2018-05-17T06:00:05.573Z,975.61
2018-05-17T06:01:05.486Z,975.72
2018-05-17T06:02:05.959Z,975.55
2018-05-17T06:03:05.842Z,975.67
2018-05-17T06:04:05.932Z,975.69
2018-05-17T06:05:08.116Z,975.78
2018-05-17T06:06:05.897Z,975.81
2018-05-17T06:07:05.952Z,975.67
2018-05-17T06:08:05.266Z,975.72
2018-05-17T06:09:05.461Z,975.75
2018-05-17T06:10:05.518Z,975.75
2018-05-17T06:11:05.256Z,975.75
2018-05-17T06:12:05.411Z,975.75
2018-05-17T06:13:05.124Z,975.75
2018-05-17T06:14:05.681Z,975.78
2018-05-17T06:15:05.881Z,975.87
2018-05-17T06:16:05.660Z,975.84
2018-05-17T06:17:05.293Z,975.64
2018-05-17T06:18:05.628Z,975.78
2018-05-17T06:19:05.475Z,975.61
2018-05-17T06:20:05.313Z,975.75
2018-05-17T06:21:05.453Z,975.78
2018-05-17T06:22:04.955Z,975.64
2018-05-17T06:23:05.551Z,975.69
2018-05-17T06:24:10.662Z,975.87
2018-05-17T06:25:10.773Z,975.87
2018-05-17T06:26:10.924Z,975.87
2018-05-17T06:27:06.390Z,975.84
2018-05-17T06:28:05.726Z,975.87
2018-05-17T06:29:05.388Z,975.84
2018-05-17T06:30:06.271Z,975.75
2018-05-17T06:31:05.830Z,975.92
2018-05-17T06:32:05.940Z,975.89
2018-05-17T06:33:06.769Z,975.89
2018-05-17T06:34:06.262Z,975.81
2018-05-17T06:35:05.727Z,975.86
2018-05-17T06:36:05.420Z,975.83
2018-05-17T06:37:05.704Z,975.95
2018-05-17T06:38:05.718Z,975.89
2018-05-17T06:39:05.301Z,975.78
2018-05-17T06:40:05.829Z,975.89
2018-05-17T06:41:05.651Z,975.92
2018-05-17T06:42:05.579Z,975.86
2018-05-17T06:43:05.934Z,975.89
2018-05-17T06:44:05.150Z,975.89
2018-05-17T06:45:05.199Z,975.89
2018-05-17T06:46:05.341Z,975.95
2018-05-17T06:47:05.142Z,975.89
2018-05-17T06:48:05.364Z,975.89
2018-05-17T06:49:05.370Z,975.81
2018-05-17T06:50:05.761Z,975.89
2018-05-17T06:51:11.061Z,975.95
2018-05-17T06:52:05.573Z,975.92
2018-05-17T06:53:05.703Z,975.89
2018-05-17T06:54:05.351Z,976.06
2018-05-17T06:55:06.119Z,976.03
2018-05-17T06:56:05.187Z,976.15
2018-05-17T06:57:04.940Z,975.89
2018-05-17T06:58:05.813Z,976.06
2018-05-17T06:59:05.447Z,975.86
2018-05-17T07:00:05.176Z,976.00
2018-05-17T07:01:05.957Z,975.95
2018-05-17T07:02:05.808Z,976.00
2018-05-17T07:03:05.954Z,975.95
2018-05-17T07:04:05.652Z,976.03
2018-05-17T07:05:05.917Z,976.06
2018-05-17T07:06:06.601Z,976.00
2018-05-17T07:07:05.939Z,976.09
2018-05-17T07:08:05.444Z,975.98
2018-05-17T07:09:05.927Z,975.98
2018-05-17T07:10:05.167Z,975.98
2018-05-17T07:11:05.176Z,976.03
2018-05-17T07:12:05.132Z,976.06
2018-05-17T07:13:06.356Z,976.00
2018-05-17T07:14:05.137Z,976.03
2018-05-17T07:15:05.330Z,976.00
2018-05-17T07:16:10.315Z,975.94
2018-05-17T07:17:05.273Z,976.09
2018-05-17T07:18:10.668Z,976.00
2018-05-17T07:19:05.112Z,976.06
2018-05-17T07:20:05.053Z,976.03
2018-05-17T07:21:06.080Z,976.09
2018-05-17T07:22:11.003Z,976.00
2018-05-17T07:23:05.654Z,975.94
2018-05-17T07:24:05.538Z,976.20
2018-05-17T07:25:10.247Z,976.03
2018-05-17T07:26:05.470Z,975.97
2018-05-17T07:27:05.499Z,976.06
2018-05-17T07:28:05.836Z,976.11
2018-05-17T07:29:06.008Z,976.09
2018-05-17T07:30:05.276Z,976.11
2018-05-17T07:31:05.785Z,976.17
2018-05-17T07:32:05.620Z,976.20
2018-05-17T07:33:06.576Z,976.14
2018-05-17T07:34:06.475Z,976.14
2018-05-17T07:35:05.645Z,976.23
2018-05-17T07:36:05.604Z,976.14
2018-05-17T07:37:05.727Z,976.11
2018-05-17T07:38:05.358Z,976.09
2018-05-17T07:39:05.359Z,976.17
2018-05-17T07:40:05.873Z,976.34
2018-05-17T07:41:06.117Z,976.26
2018-05-17T07:42:05.543Z,976.26
2018-05-17T07:43:05.372Z,976.29
2018-05-17T07:44:05.619Z,976.29
2018-05-17T07:45:05.739Z,976.40
2018-05-17T07:46:05.173Z,976.34
2018-05-17T07:47:05.680Z,976.49
2018-05-17T07:48:05.165Z,976.29
2018-05-17T07:49:05.005Z,976.23
2018-05-17T07:50:05.429Z,976.40
2018-05-17T07:51:05.381Z,976.23
2018-05-17T07:52:05.508Z,976.29
2018-05-17T07:53:05.536Z,976.37
2018-05-17T07:54:05.824Z,976.32
2018-05-17T07:55:06.846Z,976.43
2018-05-17T07:56:05.917Z,976.38
2018-05-17T07:57:05.008Z,976.43
2018-05-17T07:58:06.078Z,976.40
2018-05-17T07:59:06.104Z,976.43
2018-05-17T08:00:05.433Z,976.52
2018-05-17T08:01:05.767Z,976.52
2018-05-17T08:02:05.872Z,976.58
2018-05-17T08:03:05.195Z,976.52
2018-05-17T08:04:05.650Z,976.49
2018-05-17T08:05:05.270Z,976.64
2018-05-17T08:06:05.185Z,976.69
2018-05-17T08:07:05.058Z,976.58
2018-05-17T08:08:07.069Z,976.64
2018-05-17T08:09:05.282Z,976.55
2018-05-17T08:10:05.496Z,976.64
2018-05-17T08:11:05.152Z,976.67
2018-05-17T08:12:06.000Z,976.55
2018-05-17T08:13:06.035Z,976.58
2018-05-17T08:14:05.857Z,976.58
2018-05-17T08:15:04.931Z,976.61
2018-05-17T08:16:05.050Z,976.58
2018-05-17T08:17:05.171Z,976.58
2018-05-17T08:18:05.377Z,976.64
2018-05-17T08:19:05.460Z,976.55
2018-05-17T08:20:05.703Z,976.61
2018-05-17T08:21:05.575Z,976.47
2018-05-17T08:22:05.427Z,976.64
2018-05-17T08:23:05.870Z,976.70
2018-05-17T08:24:05.717Z,976.73
2018-05-17T08:25:05.638Z,976.58
2018-05-17T08:26:05.736Z,976.67
2018-05-17T08:27:06.093Z,976.67
2018-05-17T08:28:05.415Z,976.64
2018-05-17T08:29:05.342Z,976.75
2018-05-17T08:30:05.534Z,976.75
2018-05-17T08:31:06.075Z,976.70
2018-05-17T08:32:05.670Z,976.77
2018-05-17T08:33:06.099Z,976.61
2018-05-17T08:34:05.991Z,976.67
2018-05-17T08:35:05.209Z,976.75
2018-05-17T08:36:05.288Z,976.73
2018-05-17T08:37:05.593Z,976.73
2018-05-17T08:38:06.664Z,976.70
2018-05-17T08:39:05.647Z,976.73
2018-05-17T08:40:05.555Z,976.74
2018-05-17T08:41:05.802Z,976.72
2018-05-17T08:42:05.610Z,976.86
2018-05-17T08:43:05.529Z,976.77
2018-05-17T08:44:05.247Z,976.77
2018-05-17T08:45:05.440Z,976.83
2018-05-17T08:46:06.006Z,976.72
2018-05-17T08:47:06.283Z,976.77
2018-05-17T08:48:05.395Z,976.86
2018-05-17T08:49:05.742Z,976.80
2018-05-17T08:50:05.886Z,976.89
2018-05-17T08:51:05.844Z,976.77
2018-05-17T08:52:05.852Z,976.89
2018-05-17T08:53:05.633Z,976.86
2018-05-17T08:54:06.350Z,976.92
2018-05-17T08:55:05.353Z,976.86
2018-05-17T08:56:05.729Z,976.95
2018-05-17T08:57:05.276Z,976.95
2018-05-17T08:58:05.543Z,976.89
2018-05-17T08:59:05.562Z,976.86
2018-05-17T09:00:05.898Z,976.89
2018-05-17T09:01:05.374Z,976.89
2018-05-17T09:02:05.493Z,976.95
2018-05-17T09:03:05.532Z,976.89
2018-05-17T09:04:05.371Z,976.97
2018-05-17T09:05:05.412Z,976.95
2018-05-17T09:06:05.490Z,976.92
2018-05-17T09:07:05.379Z,977.06
2018-05-17T09:08:05.844Z,976.89
2018-05-17T09:09:05.567Z,976.92
2018-05-17T09:10:05.154Z,976.97
2018-05-17T09:11:06.137Z,977.00
2018-05-17T09:12:05.051Z,976.92
2018-05-17T09:13:05.621Z,976.77
2018-05-17T09:14:06.205Z,976.92
2018-05-17T09:15:05.533Z,976.86
2018-05-17T09:16:05.575Z,976.86
2018-05-17T09:17:05.799Z,977.00
2018-05-17T09:18:05.862Z,976.94
2018-05-17T09:19:05.895Z,976.89
2018-05-17T09:20:08.483Z,976.97
2018-05-17T09:21:06.087Z,977.20
2018-05-17T09:22:05.780Z,977.11
2018-05-17T09:23:05.647Z,976.94
2018-05-17T09:24:05.598Z,976.97
2018-05-17T09:25:05.917Z,977.06
2018-05-17T09:26:05.784Z,976.94
2018-05-17T09:27:05.686Z,977.05
2018-05-17T09:28:05.688Z,977.00
2018-05-17T09:29:05.969Z,977.08
2018-05-17T09:30:05.648Z,976.88
2018-05-17T09:31:10.465Z,977.02
2018-05-17T09:32:05.443Z,977.16
2018-05-17T09:33:05.432Z,976.99
2018-05-17T09:34:05.793Z,977.10
2018-05-17T09:35:10.751Z,977.19
2018-05-17T09:36:05.851Z,977.04
2018-05-17T09:37:05.694Z,977.10
2018-05-17T09:38:05.192Z,977.07
2018-05-17T09:39:06.216Z,977.21
2018-05-17T09:40:05.731Z,977.04
2018-05-17T09:41:05.456Z,977.15
2018-05-17T09:42:05.338Z,977.12
2018-05-17T09:43:06.412Z,977.21
2018-05-17T09:44:05.567Z,977.21
2018-05-17T09:45:05.326Z,977.04
2018-05-17T09:46:06.738Z,977.27
2018-05-17T09:47:06.114Z,977.21
2018-05-17T09:48:05.746Z,977.18
2018-05-17T09:49:05.011Z,977.23
2018-05-17T09:50:05.579Z,977.23
2018-05-17T09:51:05.732Z,977.18
2018-05-17T09:52:05.436Z,977.17
2018-05-17T09:53:05.139Z,977.20
2018-05-17T09:54:05.891Z,977.32
2018-05-17T09:55:06.190Z,977.14
2018-05-17T09:56:05.038Z,977.29
2018-05-17T09:57:05.749Z,977.14
2018-05-17T09:58:05.569Z,977.05
2018-05-17T09:59:05.516Z,977.20
2018-05-17T10:00:05.595Z,977.17
2018-05-17T10:01:05.331Z,977.25
2018-05-17T10:02:05.287Z,977.25
2018-05-17T10:03:10.978Z,977.31
2018-05-17T10:04:05.328Z,977.40
2018-05-17T10:05:06.008Z,977.11
2018-05-17T10:06:05.405Z,977.22
2018-05-17T10:07:05.418Z,977.08
2018-05-17T10:08:05.535Z,977.31
2018-05-17T10:09:05.590Z,977.28
2018-05-17T10:10:06.329Z,977.13
2018-05-17T10:11:06.092Z,977.10
2018-05-17T10:12:06.389Z,977.16
2018-05-17T10:13:05.303Z,977.19
2018-05-17T10:14:05.997Z,977.24
2018-05-17T10:15:05.356Z,977.27
2018-05-17T10:16:06.535Z,977.30
2018-05-17T10:17:05.596Z,977.35
2018-05-17T10:18:05.421Z,977.27
2018-05-17T10:19:05.254Z,977.38
2018-05-17T10:20:06.778Z,977.09
2018-05-17T10:21:06.073Z,977.20
2018-05-17T10:22:05.454Z,977.20
2018-05-17T10:23:06.120Z,977.26
2018-05-17T10:24:05.103Z,977.28
2018-05-17T10:25:05.163Z,977.25
2018-05-17T10:26:05.416Z,977.33
2018-05-17T10:27:05.530Z,977.25
2018-05-17T10:28:06.336Z,977.07
2018-05-17T10:29:05.651Z,977.24
2018-05-17T10:30:05.664Z,977.21
2018-05-17T10:31:05.792Z,977.27
2018-05-17T10:32:05.579Z,977.13
2018-05-17T10:33:05.731Z,977.18
2018-05-17T10:34:10.781Z,977.15
2018-05-17T10:35:05.048Z,977.21
2018-05-17T10:36:05.540Z,977.30
2018-05-17T10:37:10.555Z,977.24
2018-05-17T10:38:05.871Z,977.10
2018-05-17T10:39:05.520Z,977.27
2018-05-17T10:40:05.471Z,977.01
2018-05-17T10:41:05.642Z,977.15
2018-05-17T10:42:05.134Z,977.15
2018-05-17T10:43:05.310Z,977.12
2018-05-17T10:44:05.489Z,977.24
2018-05-17T10:45:05.253Z,977.15
2018-05-17T10:46:05.206Z,977.32
2018-05-17T10:47:05.316Z,977.26
2018-05-17T10:48:05.528Z,977.23
2018-05-17T10:49:05.748Z,977.32
2018-05-17T10:50:05.668Z,977.14
2018-05-17T10:51:06.281Z,977.09
2018-05-17T10:52:06.015Z,977.26
2018-05-17T10:53:05.163Z,977.26
2018-05-17T10:54:05.198Z,977.31
2018-05-17T10:55:05.630Z,977.28
2018-05-17T10:56:05.577Z,977.20
2018-05-17T10:57:05.837Z,977.31
2018-05-17T10:58:06.063Z,977.14
2018-05-17T10:59:04.993Z,977.08
2018-05-17T11:00:05.750Z,977.17
2018-05-17T11:01:05.234Z,977.28
2018-05-17T11:02:05.508Z,977.25
2018-05-17T11:03:05.910Z,977.14
2018-05-17T11:04:06.267Z,977.19
2018-05-17T11:05:05.495Z,977.11
2018-05-17T11:06:05.866Z,977.17
2018-05-17T11:07:05.355Z,977.02
2018-05-17T11:08:05.547Z,977.13
2018-05-17T11:09:05.700Z,977.13
2018-05-17T11:10:05.992Z,977.13
2018-05-17T11:11:05.953Z,977.36
2018-05-17T11:12:05.778Z,977.16
2018-05-17T11:13:06.151Z,977.16
2018-05-17T11:14:05.154Z,977.13
2018-05-17T11:15:10.892Z,977.16
2018-05-17T11:16:05.746Z,977.24
2018-05-17T11:17:05.833Z,977.27
2018-05-17T11:18:06.004Z,977.24
2018-05-17T11:19:05.197Z,977.21
2018-05-17T11:20:05.956Z,977.15
2018-05-17T11:21:05.763Z,977.24
2018-05-17T11:22:05.978Z,977.21
2018-05-17T11:23:05.940Z,977.15
2018-05-17T11:24:11.194Z,977.09
2018-05-17T11:25:05.728Z,977.09
2018-05-17T11:26:05.736Z,977.26
2018-05-17T11:27:05.822Z,977.18
2018-05-17T11:28:06.030Z,977.17
2018-05-17T11:29:05.115Z,977.23
2018-05-17T11:30:05.519Z,977.20
2018-05-17T11:31:05.511Z,977.11
2018-05-17T11:32:06.447Z,977.20
2018-05-17T11:33:05.544Z,977.22
2018-05-17T11:34:05.322Z,977.11
2018-05-17T11:35:05.840Z,977.22
2018-05-17T11:36:05.817Z,977.19
2018-05-17T11:37:05.454Z,977.10
2018-05-17T11:38:05.204Z,977.25
2018-05-17T11:39:05.326Z,977.13
2018-05-17T11:40:05.088Z,977.18
2018-05-17T11:41:06.037Z,977.30
2018-05-17T11:42:05.841Z,977.35
2018-05-17T11:43:06.576Z,977.15
2018-05-17T11:44:05.698Z,977.09
2018-05-17T11:45:05.663Z,977.15
2018-05-17T11:46:05.870Z,977.06
2018-05-17T11:47:10.665Z,977.12
2018-05-17T11:48:06.175Z,977.15
2018-05-17T11:49:05.392Z,977.26
2018-05-17T11:50:05.359Z,977.26
2018-05-17T11:51:05.386Z,977.20
2018-05-17T11:52:05.226Z,977.29
2018-05-17T11:53:05.843Z,977.14
2018-05-17T11:54:05.578Z,977.20
2018-05-17T11:55:05.749Z,977.29
2018-05-17T11:56:05.615Z,977.23
2018-05-17T11:57:05.026Z,977.14
2018-05-17T11:58:05.353Z,977.05
2018-05-17T11:59:04.971Z,977.31
2018-05-17T12:00:05.054Z,977.22
2018-05-17T12:01:05.265Z,977.25
2018-05-17T12:02:06.251Z,977.04
2018-05-17T12:03:05.898Z,977.27
2018-05-17T12:04:05.895Z,977.19
2018-05-17T12:05:05.824Z,977.21
2018-05-17T12:06:05.144Z,977.21
2018-05-17T12:07:05.948Z,977.18
2018-05-17T12:08:05.440Z,977.27
2018-05-17T12:09:05.626Z,977.15
2018-05-17T12:10:05.155Z,977.26
2018-05-17T12:11:05.278Z,977.14
2018-05-17T12:12:05.198Z,977.08
2018-05-17T12:13:05.360Z,977.19
2018-05-17T12:14:06.078Z,977.25
2018-05-17T12:15:05.833Z,977.22
2018-05-17T12:16:05.031Z,977.25
2018-05-17T12:17:05.023Z,977.27
2018-05-17T12:18:05.102Z,977.13
2018-05-17T12:19:11.065Z,977.21
2018-05-17T12:20:05.708Z,977.27
2018-05-17T12:21:06.436Z,977.19
2018-05-17T12:22:05.694Z,977.13
2018-05-17T12:23:05.244Z,977.21
2018-05-17T12:24:05.913Z,977.13
2018-05-17T12:25:05.008Z,977.16
2018-05-17T12:26:10.193Z,977.16
2018-05-17T12:27:05.380Z,977.10
2018-05-17T12:28:06.272Z,977.13